sensor_id;sensor_type;location;lat;lon;timestamp;P1;durP1;ratioP1;P2;durP2;ratioP2
9559;SDS011;4818;50.860;4.648;2022-12-04T00:00:21;55.05;;;21.38;;
9559;SDS011;4818;50.860;4.648;2022-12-04T00:02:48;56.83;;;21.30;;
9559;SDS011;4818;50.860;4.648;2022-12-04T00:05:14;49.22;;;20.25;;
9559;SDS011;4818;50.860;4.648;2022-12-04T00:07:40;53.25;;;20.98;;
9559;SDS011;4818;50.860;4.648;2022-12-04T00:10:08;53.28;;;22.40;;
9559;SDS011;4818;50.860;4.648;2022-12-04T00:12:34;52.20;;;20.30;;
9559;SDS011;4818;50.860;4.648;2022-12-04T00:15:00;58.22;;;22.17;;
9559;SDS011;4818;50.860;4.648;2022-12-04T00:17:26;57.97;;;21.38;;
9559;SDS011;4818;50.860;4.648;2022-12-04T00:19:52;49.80;;;18.80;;
9559;SDS011;4818;50.860;4.648;2022-12-04T00:22:19;56.22;;;21.77;;
9559;SDS011;4818;50.860;4.648;2022-12-04T00:24:45;55.35;;;20.83;;
9559;SDS011;4818;50.860;4.648;2022-12-04T00:27:11;60.90;;;23.27;;
9559;SDS011;4818;50.860;4.648;2022-12-04T00:29:37;53.42;;;22.08;;
9559;SDS011;4818;50.860;4.648;2022-12-04T00:32:03;48.92;;;21.20;;
9559;SDS011;4818;50.860;4.648;2022-12-04T00:34:29;57.08;;;21.63;;
9559;SDS011;4818;50.860;4.648;2022-12-04T00:36:55;53.03;;;19.13;;
9559;SDS011;4818;50.860;4.648;2022-12-04T00:39:21;53.70;;;21.20;;
9559;SDS011;4818;50.860;4.648;2022-12-04T00:41:47;58.47;;;20.75;;
9559;SDS011;4818;50.860;4.648;2022-12-04T00:44:13;54.15;;;21.50;;
9559;SDS011;4818;50.860;4.648;2022-12-04T00:46:39;50.50;;;20.60;;
9559;SDS011;4818;50.860;4.648;2022-12-04T00:49:05;55.78;;;19.98;;
9559;SDS011;4818;50.860;4.648;2022-12-04T00:51:32;46.88;;;19.38;;
9559;SDS011;4818;50.860;4.648;2022-12-04T00:53:58;55.92;;;19.58;;
9559;SDS011;4818;50.860;4.648;2022-12-04T00:56:25;48.85;;;20.83;;
9559;SDS011;4818;50.860;4.648;2022-12-04T00:58:52;49.08;;;20.52;;
9559;SDS011;4818;50.860;4.648;2022-12-04T01:01:19;51.28;;;20.42;;
9559;SDS011;4818;50.860;4.648;2022-12-04T01:03:46;45.55;;;18.60;;
9559;SDS011;4818;50.860;4.648;2022-12-04T01:06:19;51.65;;;21.00;;
9559;SDS011;4818;50.860;4.648;2022-12-04T01:08:45;50.38;;;19.50;;
9559;SDS011;4818;50.860;4.648;2022-12-04T01:11:11;48.95;;;21.42;;
9559;SDS011;4818;50.860;4.648;2022-12-04T01:13:37;56.30;;;20.60;;
9559;SDS011;4818;50.860;4.648;2022-12-04T01:16:04;47.13;;;19.58;;
9559;SDS011;4818;50.860;4.648;2022-12-04T01:18:30;50.38;;;20.85;;
9559;SDS011;4818;50.860;4.648;2022-12-04T01:20:56;48.55;;;20.63;;
9559;SDS011;4818;50.860;4.648;2022-12-04T01:23:22;49.80;;;19.42;;
9559;SDS011;4818;50.860;4.648;2022-12-04T01:25:55;53.97;;;21.40;;
9559;SDS011;4818;50.860;4.648;2022-12-04T01:28:22;45.13;;;19.85;;
9559;SDS011;4818;50.860;4.648;2022-12-04T01:31:08;51.65;;;19.13;;
9559;SDS011;4818;50.860;4.648;2022-12-04T01:33:35;49.70;;;19.00;;
9559;SDS011;4818;50.860;4.648;2022-12-04T01:36:02;52.85;;;20.35;;
9559;SDS011;4818;50.860;4.648;2022-12-04T01:38:29;49.80;;;20.13;;
9559;SDS011;4818;50.860;4.648;2022-12-04T01:40:55;50.65;;;19.73;;
9559;SDS011;4818;50.860;4.648;2022-12-04T01:43:22;49.92;;;19.13;;
9559;SDS011;4818;50.860;4.648;2022-12-04T01:45:49;54.40;;;20.13;;
9559;SDS011;4818;50.860;4.648;2022-12-04T01:48:18;49.95;;;21.27;;
9559;SDS011;4818;50.860;4.648;2022-12-04T01:50:44;47.83;;;20.10;;
9559;SDS011;4818;50.860;4.648;2022-12-04T01:53:11;45.47;;;18.88;;
9559;SDS011;4818;50.860;4.648;2022-12-04T01:55:37;45.85;;;19.80;;
9559;SDS011;4818;50.860;4.648;2022-12-04T01:58:03;48.53;;;20.25;;
9559;SDS011;4818;50.860;4.648;2022-12-04T02:00:31;47.33;;;19.65;;
9559;SDS011;4818;50.860;4.648;2022-12-04T02:02:57;45.38;;;18.25;;
9559;SDS011;4818;50.860;4.648;2022-12-04T02:05:24;48.28;;;19.50;;
9559;SDS011;4818;50.860;4.648;2022-12-04T02:07:51;48.83;;;20.40;;
9559;SDS011;4818;50.860;4.648;2022-12-04T02:10:21;47.90;;;20.38;;
9559;SDS011;4818;50.860;4.648;2022-12-04T02:18:44;49.15;;;20.17;;
9559;SDS011;4818;50.860;4.648;2022-12-04T02:20:45;51.22;;;19.20;;
9559;SDS011;4818;50.860;4.648;2022-12-04T02:23:27;49.17;;;19.35;;
9559;SDS011;4818;50.860;4.648;2022-12-04T02:28:24;47.10;;;19.38;;
9559;SDS011;4818;50.860;4.648;2022-12-04T02:30:54;43.40;;;19.90;;
9559;SDS011;4818;50.860;4.648;2022-12-04T02:33:26;55.45;;;19.55;;
9559;SDS011;4818;50.860;4.648;2022-12-04T02:36:02;52.08;;;21.15;;
9559;SDS011;4818;50.860;4.648;2022-12-04T02:40:57;53.97;;;20.67;;
9559;SDS011;4818;50.860;4.648;2022-12-04T02:46:04;50.08;;;21.02;;
9559;SDS011;4818;50.860;4.648;2022-12-04T02:48:32;52.67;;;21.63;;
9559;SDS011;4818;50.860;4.648;2022-12-04T02:51:00;49.90;;;20.13;;
9559;SDS011;4818;50.860;4.648;2022-12-04T02:53:31;55.70;;;21.08;;
9559;SDS011;4818;50.860;4.648;2022-12-04T02:56:03;55.63;;;22.50;;
9559;SDS011;4818;50.860;4.648;2022-12-04T03:01:31;53.45;;;21.55;;
9559;SDS011;4818;50.860;4.648;2022-12-04T03:06:38;48.70;;;18.50;;
9559;SDS011;4818;50.860;4.648;2022-12-04T03:09:07;47.10;;;20.30;;
9559;SDS011;4818;50.860;4.648;2022-12-04T03:11:36;51.45;;;20.75;;
9559;SDS011;4818;50.860;4.648;2022-12-04T03:14:13;54.50;;;21.25;;
9559;SDS011;4818;50.860;4.648;2022-12-04T03:16:41;46.67;;;19.42;;
9559;SDS011;4818;50.860;4.648;2022-12-04T03:19:23;52.97;;;21.63;;
9559;SDS011;4818;50.860;4.648;2022-12-04T03:21:53;52.10;;;21.23;;
9559;SDS011;4818;50.860;4.648;2022-12-04T03:24:22;54.70;;;21.02;;
9559;SDS011;4818;50.860;4.648;2022-12-04T03:26:51;54.33;;;22.05;;
9559;SDS011;4818;50.860;4.648;2022-12-04T03:32:07;51.70;;;20.52;;
9559;SDS011;4818;50.860;4.648;2022-12-04T03:40:24;49.58;;;20.35;;
9559;SDS011;4818;50.860;4.648;2022-12-04T03:48:30;54.95;;;21.58;;
9559;SDS011;4818;50.860;4.648;2022-12-04T03:51:08;50.70;;;20.63;;
9559;SDS011;4818;50.860;4.648;2022-12-04T03:53:41;54.15;;;20.45;;
9559;SDS011;4818;50.860;4.648;2022-12-04T03:56:13;67.05;;;22.20;;
9559;SDS011;4818;50.860;4.648;2022-12-04T03:58:41;55.17;;;21.90;;
9559;SDS011;4818;50.860;4.648;2022-12-04T04:01:09;57.05;;;21.00;;
9559;SDS011;4818;50.860;4.648;2022-12-04T04:03:42;56.80;;;21.50;;
9559;SDS011;4818;50.860;4.648;2022-12-04T04:06:11;51.53;;;23.02;;
9559;SDS011;4818;50.860;4.648;2022-12-04T04:08:39;57.53;;;22.48;;
9559;SDS011;4818;50.860;4.648;2022-12-04T04:13:37;52.65;;;22.40;;
9559;SDS011;4818;50.860;4.648;2022-12-04T04:16:37;53.05;;;21.13;;
9559;SDS011;4818;50.860;4.648;2022-12-04T04:19:24;55.63;;;20.50;;
9559;SDS011;4818;50.860;4.648;2022-12-04T04:22:11;51.17;;;19.90;;
9559;SDS011;4818;50.860;4.648;2022-12-04T04:25:00;55.13;;;22.50;;
9559;SDS011;4818;50.860;4.648;2022-12-04T04:27:27;56.63;;;21.50;;
9559;SDS011;4818;50.860;4.648;2022-12-04T04:29:54;53.72;;;21.65;;
9559;SDS011;4818;50.860;4.648;2022-12-04T04:32:39;54.75;;;22.38;;
9559;SDS011;4818;50.860;4.648;2022-12-04T04:35:18;52.97;;;20.80;;
9559;SDS011;4818;50.860;4.648;2022-12-04T04:40:45;56.30;;;22.10;;
9559;SDS011;4818;50.860;4.648;2022-12-04T04:43:27;52.60;;;22.52;;
9559;SDS011;4818;50.860;4.648;2022-12-04T04:45:58;49.40;;;19.52;;
9559;SDS011;4818;50.860;4.648;2022-12-04T04:48:30;50.47;;;21.33;;
9559;SDS011;4818;50.860;4.648;2022-12-04T04:50:58;59.92;;;23.50;;
9559;SDS011;4818;50.860;4.648;2022-12-04T04:53:25;49.95;;;23.23;;
9559;SDS011;4818;50.860;4.648;2022-12-04T04:55:53;52.63;;;20.77;;
9559;SDS011;4818;50.860;4.648;2022-12-04T04:58:19;49.53;;;20.13;;
9559;SDS011;4818;50.860;4.648;2022-12-04T05:01:07;51.15;;;20.35;;
9559;SDS011;4818;50.860;4.648;2022-12-04T05:03:32;55.47;;;21.70;;
9559;SDS011;4818;50.860;4.648;2022-12-04T05:05:59;50.22;;;20.13;;
9559;SDS011;4818;50.860;4.648;2022-12-04T05:08:25;58.08;;;23.08;;
9559;SDS011;4818;50.860;4.648;2022-12-04T05:10:52;49.08;;;21.95;;
9559;SDS011;4818;50.860;4.648;2022-12-04T05:13:18;50.38;;;21.05;;
9559;SDS011;4818;50.860;4.648;2022-12-04T05:15:54;54.10;;;21.63;;
9559;SDS011;4818;50.860;4.648;2022-12-04T05:18:20;52.80;;;22.42;;
9559;SDS011;4818;50.860;4.648;2022-12-04T05:20:46;56.38;;;22.30;;
9559;SDS011;4818;50.860;4.648;2022-12-04T05:23:12;52.65;;;22.42;;
9559;SDS011;4818;50.860;4.648;2022-12-04T05:25:38;52.35;;;20.27;;
9559;SDS011;4818;50.860;4.648;2022-12-04T05:28:05;48.70;;;21.73;;
9559;SDS011;4818;50.860;4.648;2022-12-04T05:30:31;48.60;;;22.45;;
9559;SDS011;4818;50.860;4.648;2022-12-04T05:32:57;51.22;;;21.52;;
9559;SDS011;4818;50.860;4.648;2022-12-04T05:35:23;52.25;;;21.27;;
9559;SDS011;4818;50.860;4.648;2022-12-04T05:37:49;48.83;;;21.73;;
9559;SDS011;4818;50.860;4.648;2022-12-04T05:40:16;62.13;;;23.23;;
9559;SDS011;4818;50.860;4.648;2022-12-04T05:42:42;52.35;;;21.25;;
9559;SDS011;4818;50.860;4.648;2022-12-04T05:45:08;58.53;;;21.75;;
9559;SDS011;4818;50.860;4.648;2022-12-04T05:47:38;53.47;;;20.30;;
9559;SDS011;4818;50.860;4.648;2022-12-04T05:50:05;50.70;;;20.67;;
9559;SDS011;4818;50.860;4.648;2022-12-04T05:52:32;56.85;;;21.73;;
9559;SDS011;4818;50.860;4.648;2022-12-04T05:54:58;54.20;;;23.13;;
9559;SDS011;4818;50.860;4.648;2022-12-04T05:57:24;55.20;;;22.13;;
9559;SDS011;4818;50.860;4.648;2022-12-04T05:59:50;55.40;;;22.80;;
9559;SDS011;4818;50.860;4.648;2022-12-04T06:02:17;53.92;;;21.95;;
9559;SDS011;4818;50.860;4.648;2022-12-04T06:04:43;50.05;;;21.67;;
9559;SDS011;4818;50.860;4.648;2022-12-04T06:07:10;67.18;;;23.10;;
9559;SDS011;4818;50.860;4.648;2022-12-04T06:09:36;60.67;;;24.35;;
9559;SDS011;4818;50.860;4.648;2022-12-04T06:12:03;58.58;;;21.95;;
9559;SDS011;4818;50.860;4.648;2022-12-04T06:14:29;57.78;;;24.45;;
9559;SDS011;4818;50.860;4.648;2022-12-04T06:16:55;56.33;;;21.42;;
9559;SDS011;4818;50.860;4.648;2022-12-04T06:19:22;56.50;;;23.17;;
9559;SDS011;4818;50.860;4.648;2022-12-04T06:21:50;54.85;;;22.23;;
9559;SDS011;4818;50.860;4.648;2022-12-04T06:24:17;52.35;;;21.30;;
9559;SDS011;4818;50.860;4.648;2022-12-04T06:26:44;61.85;;;24.15;;
9559;SDS011;4818;50.860;4.648;2022-12-04T06:29:11;51.85;;;23.58;;
9559;SDS011;4818;50.860;4.648;2022-12-04T06:31:37;55.20;;;23.02;;
9559;SDS011;4818;50.860;4.648;2022-12-04T06:34:04;52.00;;;22.10;;
9559;SDS011;4818;50.860;4.648;2022-12-04T06:36:31;54.78;;;22.27;;
9559;SDS011;4818;50.860;4.648;2022-12-04T06:38:57;57.15;;;23.80;;
9559;SDS011;4818;50.860;4.648;2022-12-04T06:41:24;50.35;;;21.65;;
9559;SDS011;4818;50.860;4.648;2022-12-04T06:43:51;53.22;;;22.50;;
9559;SDS011;4818;50.860;4.648;2022-12-04T06:46:18;58.28;;;22.85;;
9559;SDS011;4818;50.860;4.648;2022-12-04T06:48:44;58.80;;;22.50;;
9559;SDS011;4818;50.860;4.648;2022-12-04T06:51:12;54.05;;;22.25;;
9559;SDS011;4818;50.860;4.648;2022-12-04T06:53:39;53.88;;;22.00;;
9559;SDS011;4818;50.860;4.648;2022-12-04T06:56:06;54.03;;;21.70;;
9559;SDS011;4818;50.860;4.648;2022-12-04T06:58:33;59.90;;;23.75;;
9559;SDS011;4818;50.860;4.648;2022-12-04T07:01:04;54.75;;;22.27;;
9559;SDS011;4818;50.860;4.648;2022-12-04T07:03:30;51.13;;;22.83;;
9559;SDS011;4818;50.860;4.648;2022-12-04T07:05:56;56.13;;;22.88;;
9559;SDS011;4818;50.860;4.648;2022-12-04T07:08:22;57.42;;;23.77;;
9559;SDS011;4818;50.860;4.648;2022-12-04T07:10:49;54.03;;;22.52;;
9559;SDS011;4818;50.860;4.648;2022-12-04T07:13:15;57.80;;;23.38;;
9559;SDS011;4818;50.860;4.648;2022-12-04T07:15:41;53.50;;;22.17;;
9559;SDS011;4818;50.860;4.648;2022-12-04T07:18:07;52.20;;;22.50;;
9559;SDS011;4818;50.860;4.648;2022-12-04T07:20:34;66.85;;;25.08;;
9559;SDS011;4818;50.860;4.648;2022-12-04T07:23:00;61.97;;;24.52;;
9559;SDS011;4818;50.860;4.648;2022-12-04T07:25:26;63.30;;;23.17;;
9559;SDS011;4818;50.860;4.648;2022-12-04T07:27:53;56.58;;;23.50;;
9559;SDS011;4818;50.860;4.648;2022-12-04T07:30:20;59.38;;;23.92;;
9559;SDS011;4818;50.860;4.648;2022-12-04T07:32:46;57.72;;;23.42;;
9559;SDS011;4818;50.860;4.648;2022-12-04T07:35:13;62.55;;;25.20;;
9559;SDS011;4818;50.860;4.648;2022-12-04T07:37:39;65.30;;;28.15;;
9559;SDS011;4818;50.860;4.648;2022-12-04T07:40:07;68.75;;;31.17;;
9559;SDS011;4818;50.860;4.648;2022-12-04T07:42:34;64.23;;;28.43;;
9559;SDS011;4818;50.860;4.648;2022-12-04T07:45:00;64.03;;;30.90;;
9559;SDS011;4818;50.860;4.648;2022-12-04T07:47:26;64.40;;;27.20;;
9559;SDS011;4818;50.860;4.648;2022-12-04T07:49:52;57.47;;;26.85;;
9559;SDS011;4818;50.860;4.648;2022-12-04T07:52:18;57.78;;;25.83;;
9559;SDS011;4818;50.860;4.648;2022-12-04T07:54:44;59.45;;;26.67;;
9559;SDS011;4818;50.860;4.648;2022-12-04T07:57:11;56.03;;;24.05;;
9559;SDS011;4818;50.860;4.648;2022-12-04T07:59:37;56.63;;;23.10;;
9559;SDS011;4818;50.860;4.648;2022-12-04T08:02:04;52.33;;;22.20;;
9559;SDS011;4818;50.860;4.648;2022-12-04T08:04:31;58.67;;;25.90;;
9559;SDS011;4818;50.860;4.648;2022-12-04T08:06:57;56.47;;;22.63;;
9559;SDS011;4818;50.860;4.648;2022-12-04T08:09:24;68.20;;;27.50;;
9559;SDS011;4818;50.860;4.648;2022-12-04T08:11:50;54.35;;;24.20;;
9559;SDS011;4818;50.860;4.648;2022-12-04T08:14:17;60.85;;;22.98;;
9559;SDS011;4818;50.860;4.648;2022-12-04T08:16:43;55.30;;;25.67;;
9559;SDS011;4818;50.860;4.648;2022-12-04T08:19:09;60.83;;;27.13;;
9559;SDS011;4818;50.860;4.648;2022-12-04T08:21:36;68.32;;;29.33;;
9559;SDS011;4818;50.860;4.648;2022-12-04T08:24:06;59.20;;;25.10;;
9559;SDS011;4818;50.860;4.648;2022-12-04T08:26:32;57.70;;;23.38;;
9559;SDS011;4818;50.860;4.648;2022-12-04T08:28:59;55.05;;;23.98;;
9559;SDS011;4818;50.860;4.648;2022-12-04T08:31:26;55.42;;;23.42;;
9559;SDS011;4818;50.860;4.648;2022-12-04T08:33:53;55.90;;;22.17;;
9559;SDS011;4818;50.860;4.648;2022-12-04T08:36:21;54.33;;;22.83;;
9559;SDS011;4818;50.860;4.648;2022-12-04T08:38:47;58.60;;;23.58;;
9559;SDS011;4818;50.860;4.648;2022-12-04T08:41:16;52.50;;;23.23;;
9559;SDS011;4818;50.860;4.648;2022-12-04T08:43:42;60.58;;;23.42;;
9559;SDS011;4818;50.860;4.648;2022-12-04T08:46:09;55.75;;;23.45;;
9559;SDS011;4818;50.860;4.648;2022-12-04T08:48:36;59.55;;;23.27;;
9559;SDS011;4818;50.860;4.648;2022-12-04T08:51:03;60.90;;;23.25;;
9559;SDS011;4818;50.860;4.648;2022-12-04T08:53:29;60.30;;;23.92;;
9559;SDS011;4818;50.860;4.648;2022-12-04T08:55:56;59.97;;;25.00;;
9559;SDS011;4818;50.860;4.648;2022-12-04T08:58:22;58.90;;;24.33;;
9559;SDS011;4818;50.860;4.648;2022-12-04T09:00:48;57.45;;;23.55;;
9559;SDS011;4818;50.860;4.648;2022-12-04T09:03:15;52.25;;;22.42;;
9559;SDS011;4818;50.860;4.648;2022-12-04T09:05:42;54.97;;;23.65;;
9559;SDS011;4818;50.860;4.648;2022-12-04T09:08:13;58.13;;;22.58;;
9559;SDS011;4818;50.860;4.648;2022-12-04T09:10:40;58.08;;;22.75;;
9559;SDS011;4818;50.860;4.648;2022-12-04T09:13:06;54.50;;;22.20;;
9559;SDS011;4818;50.860;4.648;2022-12-04T09:15:33;49.47;;;21.58;;
9559;SDS011;4818;50.860;4.648;2022-12-04T09:18:01;54.42;;;22.35;;
9559;SDS011;4818;50.860;4.648;2022-12-04T09:20:27;58.17;;;23.33;;
9559;SDS011;4818;50.860;4.648;2022-12-04T09:22:53;51.88;;;22.73;;
9559;SDS011;4818;50.860;4.648;2022-12-04T09:25:19;47.33;;;20.60;;
9559;SDS011;4818;50.860;4.648;2022-12-04T09:27:46;46.30;;;21.23;;
9559;SDS011;4818;50.860;4.648;2022-12-04T09:30:12;50.15;;;20.92;;
9559;SDS011;4818;50.860;4.648;2022-12-04T09:32:39;49.53;;;20.25;;
9559;SDS011;4818;50.860;4.648;2022-12-04T09:35:06;51.28;;;20.92;;
9559;SDS011;4818;50.860;4.648;2022-12-04T09:37:34;45.70;;;19.20;;
9559;SDS011;4818;50.860;4.648;2022-12-04T09:40:04;43.95;;;18.67;;
9559;SDS011;4818;50.860;4.648;2022-12-04T09:42:52;42.35;;;19.50;;
9559;SDS011;4818;50.860;4.648;2022-12-04T09:45:26;51.60;;;20.35;;
9559;SDS011;4818;50.860;4.648;2022-12-04T09:48:07;45.08;;;20.52;;
9559;SDS011;4818;50.860;4.648;2022-12-04T09:50:39;47.45;;;18.60;;
9559;SDS011;4818;50.860;4.648;2022-12-04T09:53:14;44.00;;;19.05;;
9559;SDS011;4818;50.860;4.648;2022-12-04T09:55:53;43.45;;;19.35;;
9559;SDS011;4818;50.860;4.648;2022-12-04T09:58:22;41.92;;;16.65;;
9559;SDS011;4818;50.860;4.648;2022-12-04T10:00:54;36.03;;;16.23;;
9559;SDS011;4818;50.860;4.648;2022-12-04T10:03:23;43.10;;;18.88;;
9559;SDS011;4818;50.860;4.648;2022-12-04T10:08:38;39.60;;;16.60;;
9559;SDS011;4818;50.860;4.648;2022-12-04T10:26:16;35.00;;;16.90;;
9559;SDS011;4818;50.860;4.648;2022-12-04T10:28:43;37.08;;;16.02;;
9559;SDS011;4818;50.860;4.648;2022-12-04T10:31:11;40.05;;;17.23;;
9559;SDS011;4818;50.860;4.648;2022-12-04T10:33:39;36.20;;;16.60;;
9559;SDS011;4818;50.860;4.648;2022-12-04T10:36:09;36.97;;;16.98;;
9559;SDS011;4818;50.860;4.648;2022-12-04T10:44:16;31.63;;;14.85;;
9559;SDS011;4818;50.860;4.648;2022-12-04T10:46:43;31.33;;;14.73;;
9559;SDS011;4818;50.860;4.648;2022-12-04T10:49:15;32.03;;;14.68;;
9559;SDS011;4818;50.860;4.648;2022-12-04T10:51:42;30.80;;;15.27;;
9559;SDS011;4818;50.860;4.648;2022-12-04T10:54:17;32.17;;;13.77;;
9559;SDS011;4818;50.860;4.648;2022-12-04T10:56:49;28.85;;;13.68;;
9559;SDS011;4818;50.860;4.648;2022-12-04T10:59:15;31.42;;;13.68;;
9559;SDS011;4818;50.860;4.648;2022-12-04T11:01:41;30.63;;;14.43;;
9559;SDS011;4818;50.860;4.648;2022-12-04T11:04:08;30.27;;;14.30;;
9559;SDS011;4818;50.860;4.648;2022-12-04T11:06:35;27.27;;;12.95;;
9559;SDS011;4818;50.860;4.648;2022-12-04T11:09:02;28.90;;;13.07;;
9559;SDS011;4818;50.860;4.648;2022-12-04T11:11:29;29.02;;;13.13;;
9559;SDS011;4818;50.860;4.648;2022-12-04T11:16:36;27.30;;;12.65;;
9559;SDS011;4818;50.860;4.648;2022-12-04T11:19:16;28.70;;;13.95;;
9559;SDS011;4818;50.860;4.648;2022-12-04T11:21:43;30.80;;;13.95;;
9559;SDS011;4818;50.860;4.648;2022-12-04T11:26:48;28.30;;;13.80;;
9559;SDS011;4818;50.860;4.648;2022-12-04T11:29:15;22.88;;;12.25;;
9559;SDS011;4818;50.860;4.648;2022-12-04T11:31:49;32.60;;;14.27;;
9559;SDS011;4818;50.860;4.648;2022-12-04T11:34:20;28.92;;;12.70;;
9559;SDS011;4818;50.860;4.648;2022-12-04T11:36:51;27.52;;;13.82;;
9559;SDS011;4818;50.860;4.648;2022-12-04T11:41:57;25.48;;;12.60;;
9559;SDS011;4818;50.860;4.648;2022-12-04T11:44:24;30.05;;;13.13;;
9559;SDS011;4818;50.860;4.648;2022-12-04T11:46:52;27.85;;;12.07;;
9559;SDS011;4818;50.860;4.648;2022-12-04T11:49:22;26.10;;;11.93;;
9559;SDS011;4818;50.860;4.648;2022-12-04T11:56:49;31.25;;;13.55;;
9559;SDS011;4818;50.860;4.648;2022-12-04T11:59:31;27.63;;;12.73;;
9559;SDS011;4818;50.860;4.648;2022-12-04T12:02:14;27.10;;;11.98;;
9559;SDS011;4818;50.860;4.648;2022-12-04T12:12:52;27.73;;;12.82;;
9559;SDS011;4818;50.860;4.648;2022-12-04T12:15:26;31.13;;;13.68;;
9559;SDS011;4818;50.860;4.648;2022-12-04T12:20:25;25.75;;;12.07;;
9559;SDS011;4818;50.860;4.648;2022-12-04T12:25:30;25.88;;;12.80;;
9559;SDS011;4818;50.860;4.648;2022-12-04T12:38:28;26.33;;;11.38;;
9559;SDS011;4818;50.860;4.648;2022-12-04T12:41:15;22.88;;;11.13;;
9559;SDS011;4818;50.860;4.648;2022-12-04T12:43:44;25.55;;;11.85;;
9559;SDS011;4818;50.860;4.648;2022-12-04T12:48:45;18.48;;;9.52;;
9559;SDS011;4818;50.860;4.648;2022-12-04T12:53:46;23.55;;;10.88;;
9559;SDS011;4818;50.860;4.648;2022-12-04T13:01:17;21.08;;;10.30;;
9559;SDS011;4818;50.860;4.648;2022-12-04T13:04:02;17.75;;;9.05;;
9559;SDS011;4818;50.860;4.648;2022-12-04T13:06:52;19.65;;;8.52;;
9559;SDS011;4818;50.860;4.648;2022-12-04T13:11:45;20.13;;;9.75;;
9559;SDS011;4818;50.860;4.648;2022-12-04T13:14:12;20.40;;;10.10;;
9559;SDS011;4818;50.860;4.648;2022-12-04T13:16:40;20.65;;;9.68;;
9559;SDS011;4818;50.860;4.648;2022-12-04T13:26:44;22.85;;;10.07;;
9559;SDS011;4818;50.860;4.648;2022-12-04T13:31:50;18.30;;;9.70;;
9559;SDS011;4818;50.860;4.648;2022-12-04T13:42:00;21.85;;;10.02;;
9559;SDS011;4818;50.860;4.648;2022-12-04T13:44:27;19.83;;;9.40;;
9559;SDS011;4818;50.860;4.648;2022-12-04T13:46:58;20.98;;;9.85;;
9559;SDS011;4818;50.860;4.648;2022-12-04T13:49:26;20.45;;;9.60;;
9559;SDS011;4818;50.860;4.648;2022-12-04T13:51:53;17.85;;;8.90;;
9559;SDS011;4818;50.860;4.648;2022-12-04T13:54:22;18.58;;;9.70;;
9559;SDS011;4818;50.860;4.648;2022-12-04T13:56:49;17.65;;;9.02;;
9559;SDS011;4818;50.860;4.648;2022-12-04T13:59:32;20.00;;;10.32;;
9559;SDS011;4818;50.860;4.648;2022-12-04T14:02:03;23.52;;;10.70;;
9559;SDS011;4818;50.860;4.648;2022-12-04T14:04:51;21.70;;;9.82;;
9559;SDS011;4818;50.860;4.648;2022-12-04T14:07:36;18.38;;;9.40;;
9559;SDS011;4818;50.860;4.648;2022-12-04T14:10:04;18.67;;;9.75;;
9559;SDS011;4818;50.860;4.648;2022-12-04T14:12:32;19.42;;;10.40;;
9559;SDS011;4818;50.860;4.648;2022-12-04T14:15:07;18.47;;;9.57;;
9559;SDS011;4818;50.860;4.648;2022-12-04T14:17:34;21.17;;;9.77;;
9559;SDS011;4818;50.860;4.648;2022-12-04T14:20:20;20.92;;;9.90;;
9559;SDS011;4818;50.860;4.648;2022-12-04T14:22:49;19.60;;;11.05;;
9559;SDS011;4818;50.860;4.648;2022-12-04T14:30:18;23.75;;;11.77;;
9559;SDS011;4818;50.860;4.648;2022-12-04T14:32:45;20.27;;;10.02;;
9559;SDS011;4818;50.860;4.648;2022-12-04T14:35:14;20.50;;;10.10;;
9559;SDS011;4818;50.860;4.648;2022-12-04T14:37:43;21.27;;;10.13;;
9559;SDS011;4818;50.860;4.648;2022-12-04T14:40:33;19.90;;;10.05;;
9559;SDS011;4818;50.860;4.648;2022-12-04T14:43:01;20.63;;;11.05;;
9559;SDS011;4818;50.860;4.648;2022-12-04T14:58:19;19.55;;;10.63;;
9559;SDS011;4818;50.860;4.648;2022-12-04T15:00:56;19.25;;;10.98;;
9559;SDS011;4818;50.860;4.648;2022-12-04T15:03:22;26.20;;;12.45;;
9559;SDS011;4818;50.860;4.648;2022-12-04T15:05:49;23.85;;;11.15;;
9559;SDS011;4818;50.860;4.648;2022-12-04T15:08:16;22.40;;;11.32;;
9559;SDS011;4818;50.860;4.648;2022-12-04T15:10:48;22.77;;;11.88;;
9559;SDS011;4818;50.860;4.648;2022-12-04T15:13:34;21.67;;;12.83;;
9559;SDS011;4818;50.860;4.648;2022-12-04T15:16:14;19.42;;;10.95;;
9559;SDS011;4818;50.860;4.648;2022-12-04T15:18:51;19.90;;;11.18;;
9559;SDS011;4818;50.860;4.648;2022-12-04T15:21:17;23.55;;;11.48;;
9559;SDS011;4818;50.860;4.648;2022-12-04T15:23:44;24.38;;;11.75;;
9559;SDS011;4818;50.860;4.648;2022-12-04T15:26:12;23.95;;;12.07;;
9559;SDS011;4818;50.860;4.648;2022-12-04T15:31:10;25.65;;;12.68;;
9559;SDS011;4818;50.860;4.648;2022-12-04T15:33:38;25.13;;;11.90;;
9559;SDS011;4818;50.860;4.648;2022-12-04T15:36:12;26.25;;;13.32;;
9559;SDS011;4818;50.860;4.648;2022-12-04T15:38:39;20.27;;;11.73;;
9559;SDS011;4818;50.860;4.648;2022-12-04T15:41:05;24.80;;;13.18;;
9559;SDS011;4818;50.860;4.648;2022-12-04T15:43:41;23.13;;;12.75;;
9559;SDS011;4818;50.860;4.648;2022-12-04T15:46:11;23.85;;;12.90;;
9559;SDS011;4818;50.860;4.648;2022-12-04T15:48:38;23.70;;;12.38;;
9559;SDS011;4818;50.860;4.648;2022-12-04T15:51:04;24.08;;;12.20;;
9559;SDS011;4818;50.860;4.648;2022-12-04T15:53:32;27.10;;;13.45;;
9559;SDS011;4818;50.860;4.648;2022-12-04T15:56:01;16.83;;;9.35;;
9559;SDS011;4818;50.860;4.648;2022-12-04T15:58:35;25.48;;;13.45;;
9559;SDS011;4818;50.860;4.648;2022-12-04T16:01:07;26.30;;;13.50;;
9559;SDS011;4818;50.860;4.648;2022-12-04T16:03:53;30.00;;;15.27;;
9559;SDS011;4818;50.860;4.648;2022-12-04T16:09:11;24.60;;;14.60;;
9559;SDS011;4818;50.860;4.648;2022-12-04T16:11:38;32.17;;;14.52;;
9559;SDS011;4818;50.860;4.648;2022-12-04T16:16:42;26.25;;;13.57;;
9559;SDS011;4818;50.860;4.648;2022-12-04T16:19:17;24.70;;;13.25;;
9559;SDS011;4818;50.860;4.648;2022-12-04T16:21:46;25.80;;;14.27;;
9559;SDS011;4818;50.860;4.648;2022-12-04T16:24:13;26.58;;;13.27;;
9559;SDS011;4818;50.860;4.648;2022-12-04T16:26:39;22.85;;;12.57;;
9559;SDS011;4818;50.860;4.648;2022-12-04T16:29:06;20.90;;;10.98;;
9559;SDS011;4818;50.860;4.648;2022-12-04T16:31:32;21.35;;;11.23;;
9559;SDS011;4818;50.860;4.648;2022-12-04T16:33:58;19.40;;;11.45;;
9559;SDS011;4818;50.860;4.648;2022-12-04T16:36:25;19.92;;;10.60;;
9559;SDS011;4818;50.860;4.648;2022-12-04T16:38:51;20.10;;;11.20;;
9559;SDS011;4818;50.860;4.648;2022-12-04T16:41:18;22.20;;;11.85;;
9559;SDS011;4818;50.860;4.648;2022-12-04T16:43:48;21.65;;;12.25;;
9559;SDS011;4818;50.860;4.648;2022-12-04T16:46:17;22.73;;;12.00;;
9559;SDS011;4818;50.860;4.648;2022-12-04T16:48:43;23.35;;;11.30;;
9559;SDS011;4818;50.860;4.648;2022-12-04T16:51:14;18.60;;;11.10;;
9559;SDS011;4818;50.860;4.648;2022-12-04T16:53:40;22.65;;;12.82;;
9559;SDS011;4818;50.860;4.648;2022-12-04T16:56:07;22.02;;;11.70;;
9559;SDS011;4818;50.860;4.648;2022-12-04T16:58:33;22.95;;;13.07;;
9559;SDS011;4818;50.860;4.648;2022-12-04T17:01:02;24.10;;;12.68;;
9559;SDS011;4818;50.860;4.648;2022-12-04T17:03:30;20.83;;;11.65;;
9559;SDS011;4818;50.860;4.648;2022-12-04T17:05:57;25.48;;;11.85;;
9559;SDS011;4818;50.860;4.648;2022-12-04T17:08:25;24.35;;;12.18;;
9559;SDS011;4818;50.860;4.648;2022-12-04T17:10:51;21.45;;;11.93;;
9559;SDS011;4818;50.860;4.648;2022-12-04T17:13:18;22.40;;;12.45;;
9559;SDS011;4818;50.860;4.648;2022-12-04T17:15:44;23.50;;;12.88;;
9559;SDS011;4818;50.860;4.648;2022-12-04T17:18:11;23.10;;;12.85;;
9559;SDS011;4818;50.860;4.648;2022-12-04T17:20:41;22.73;;;12.65;;
9559;SDS011;4818;50.860;4.648;2022-12-04T17:23:08;22.73;;;11.50;;
9559;SDS011;4818;50.860;4.648;2022-12-04T17:25:34;26.60;;;12.20;;
9559;SDS011;4818;50.860;4.648;2022-12-04T17:28:01;22.90;;;12.32;;
9559;SDS011;4818;50.860;4.648;2022-12-04T17:30:27;20.98;;;12.00;;
9559;SDS011;4818;50.860;4.648;2022-12-04T17:32:53;25.95;;;12.77;;